Flight Information

DEPARTURE
MISSOULA, MT
Elevation:
3205
Runways:
12/30 - 9501x150 - ASPH-G
8/26 - 4612x75 - ASPH-G
ATIS:
126.65
Ground:
121.9
Tower:
MISSOULA TOWER 118.4
DESTINATION
,
Elevation:
TPA:
1000 (est.)


6371.1 NM72° True-18° Var54° HDG

Flight Plan:
(click to file on line)

1. Type
2. Aircraft Identification
3. Aircraft Type / Special Equipment
4. True Airspeed
kts
5. Departure Airport
(ICAO code)
6. Arriving Airport
(ICAO code)
7. Cruising Altitude
ft
8. Alternate Airport
(ICAO code)
9. Route of Flight
10. Remarks


00:00:00 Departure ATIS: Destination ATIS:

Clearance Limit:
Route:
Altitude: Expect in minutes
Frequency:
Transponder: (7500 Hijack / 7600 Lost Comms / 7700 Emergency)


KMSO 221453Z 19003KT 9SM BKN050 OVC070 M02/M04 A2998 RMK AO2 SNB10E17 SLP182 P0000 60000 T10221039 56004
Time: 2021-01-22T14:53:00Z
1611330152
Winds: 190 @ 3 kts
Visibility: 9.0 sm
Clouds (AGL): BKN 5000
OVC 7000
Temperature: -2.2 C
Dew Point: -3.9 C
Pressure: 29.97933 in Hgbr


Notes:

Data extracted from FAA Digital Chart Supplement. Effective: 0901Z Thursday, Dec 31, 2020 to 0901Z Thursday, Jan 28, 2021
Current ATIS data is provided courtisy of PilotEdge.